Time;durP1;ratioP1;P1;durP2;ratioP2;P2;SDS_P1;SDS_P2;PMS_P1;PMS_P2;Temp;Humidity;BMP_temperature;BMP_pressure;BME280_temperature;BME280_humidity;BME280_pressure;Samples;Min_cycle;Max_cycle;Signal;HPM_P1;HPM_P2
2021/01/28 00:01:59;;;;;;;125.93;55.10;;;;;;;;;;5035713;28;20488;-67
2021/01/28 00:04:25;;;;;;;123.00;54.08;;;;;;;;;;5035861;28;20049;-67
2021/01/28 00:06:50;;;;;;;126.68;55.40;;;;;;;;;;5035678;28;20026;-67
2021/01/28 00:09:16;;;;;;;122.70;55.08;;;;;;;;;;5035710;28;20098;-67
2021/01/28 00:11:41;;;;;;;151.73;68.13;;;;;;;;;;5035247;28;20044;-68
2021/01/28 00:14:07;;;;;;;136.63;60.58;;;;;;;;;;5034573;28;20171;-67
2021/01/28 00:16:32;;;;;;;129.30;58.58;;;;;;;;;;5034986;28;20478;-67
2021/01/28 00:18:58;;;;;;;129.10;58.47;;;;;;;;;;5035422;28;20508;-67
2021/01/28 00:21:23;;;;;;;128.95;56.60;;;;;;;;;;5035212;28;20037;-67
2021/01/28 00:23:49;;;;;;;114.07;53.88;;;;;;;;;;5035102;28;20013;-68
2021/01/28 00:26:16;;;;;;;118.78;52.63;;;;;;;;;;5034706;28;20033;-67
2021/01/28 00:28:42;;;;;;;119.82;52.25;;;;;;;;;;5035057;28;20080;-67
2021/01/28 00:31:08;;;;;;;120.40;55.63;;;;;;;;;;5035231;28;20032;-67
2021/01/28 00:33:33;;;;;;;114.45;54.20;;;;;;;;;;5035127;28;20414;-68
2021/01/28 00:35:59;;;;;;;108.53;49.65;;;;;;;;;;5035106;28;20033;-69
2021/01/28 00:38:29;;;;;;;111.30;49.88;;;;;;;;;;5034913;28;20013;-68
2021/01/28 00:40:55;;;;;;;198.90;77.30;;;;;;;;;;5035045;28;20472;-68
2021/01/28 00:43:21;;;;;;;155.50;63.05;;;;;;;;;;5035112;28;20061;-68
2021/01/28 00:45:46;;;;;;;131.02;57.25;;;;;;;;;;5033856;28;20060;-68
2021/01/28 00:48:12;;;;;;;170.35;67.15;;;;;;;;;;5034905;28;20075;-68
2021/01/28 00:50:38;;;;;;;254.30;104.22;;;;;;;;;;5034552;28;20502;-68
2021/01/28 00:53:03;;;;;;;126.32;56.78;;;;;;;;;;5034666;28;20040;-68
2021/01/28 00:55:29;;;;;;;106.40;50.85;;;;;;;;;;5034370;28;20396;-68
2021/01/28 00:58:03;;;;;;;96.70;45.58;;;;;;;;;;5033495;28;20098;-68
2021/01/28 01:00:30;;;;;;;85.97;43.80;;;;;;;;;;5033399;28;20482;-68
2021/01/28 01:02:56;;;;;;;88.78;41.63;;;;;;;;;;5034575;28;20055;-68
2021/01/28 01:05:23;;;;;;;91.00;41.15;;;;;;;;;;5033363;28;20044;-68
2021/01/28 01:07:50;;;;;;;84.38;40.70;;;;;;;;;;5033380;28;20022;-69
2021/01/28 01:10:22;;;;;;;92.93;45.35;;;;;;;;;;5034188;28;20068;-69
2021/01/28 01:12:47;;;;;;;162.18;73.68;;;;;;;;;;5034169;28;20095;-69
2021/01/28 01:15:13;;;;;;;169.82;67.07;;;;;;;;;;5032247;28;20484;-69
2021/01/28 01:17:38;;;;;;;165.10;70.85;;;;;;;;;;5034048;28;20563;-68
2021/01/28 01:20:08;;;;;;;166.18;81.90;;;;;;;;;;5032392;28;20618;-68
2021/01/28 01:22:39;;;;;;;125.50;58.13;;;;;;;;;;5032711;28;20029;-69
2021/01/28 01:25:05;;;;;;;112.30;52.38;;;;;;;;;;5032648;28;20437;-68
2021/01/28 01:27:30;;;;;;;106.90;50.20;;;;;;;;;;5030116;28;20017;-68
2021/01/28 01:29:59;;;;;;;99.18;47.13;;;;;;;;;;5032656;28;20033;-69
2021/01/28 01:32:37;;;;;;;98.15;49.05;;;;;;;;;;5032791;28;20115;-68
2021/01/28 01:35:24;;;;;;;103.05;48.63;;;;;;;;;;5032783;28;20026;-68
2021/01/28 01:37:52;;;;;;;104.15;49.00;;;;;;;;;;5032410;28;20100;-68
2021/01/28 01:40:22;;;;;;;99.70;45.85;;;;;;;;;;5033706;28;20498;-67
2021/01/28 01:42:48;;;;;;;101.17;47.60;;;;;;;;;;5033621;28;20025;-67
2021/01/28 01:45:16;;;;;;;91.95;42.22;;;;;;;;;;5032469;28;20071;-67
2021/01/28 01:47:42;;;;;;;92.82;42.20;;;;;;;;;;5033664;28;20049;-67
2021/01/28 01:50:17;;;;;;;93.35;43.05;;;;;;;;;;5032216;28;20021;-67
2021/01/28 01:52:43;;;;;;;95.97;44.17;;;;;;;;;;5032367;28;20037;-67
2021/01/28 01:55:09;;;;;;;94.95;43.20;;;;;;;;;;5032402;28;20017;-65
2021/01/28 01:57:48;;;;;;;96.57;44.45;;;;;;;;;;5032600;28;20030;-65
2021/01/28 02:00:20;;;;;;;120.70;52.95;;;;;;;;;;5032419;28;20053;-65
2021/01/28 02:03:12;;;;;;;111.13;49.08;;;;;;;;;;5033371;28;20447;-66
2021/01/28 02:06:05;;;;;;;119.80;51.63;;;;;;;;;;5033449;28;20072;-66
2021/01/28 02:08:51;;;;;;;107.15;47.67;;;;;;;;;;5033569;28;20558;-66
2021/01/28 02:11:37;;;;;;;97.63;43.85;;;;;;;;;;5033585;28;20037;-66
2021/01/28 02:14:18;;;;;;;89.68;42.83;;;;;;;;;;5032260;28;20028;-66
2021/01/28 02:16:58;;;;;;;84.55;40.05;;;;;;;;;;5032111;28;20128;-66
2021/01/28 02:19:50;;;;;;;82.85;39.40;;;;;;;;;;5033266;28;20033;-66
2021/01/28 02:22:22;;;;;;;84.45;38.78;;;;;;;;;;5032123;28;20113;-67
2021/01/28 02:24:50;;;;;;;86.70;40.47;;;;;;;;;;5015841;28;20091;-67
2021/01/28 02:27:16;;;;;;;80.05;39.80;;;;;;;;;;5015460;28;20101;-67
2021/01/28 02:30:15;;;;;;;86.00;42.00;;;;;;;;;;5032364;28;20518;-68
2021/01/28 02:32:41;;;;;;;85.90;40.27;;;;;;;;;;5033246;28;20029;-67
2021/01/28 02:35:28;;;;;;;81.38;38.60;;;;;;;;;;5033363;28;20037;-61
2021/01/28 02:37:55;;;;;;;78.53;37.77;;;;;;;;;;5033302;28;20024;-61
2021/01/28 02:40:29;;;;;;;84.20;40.13;;;;;;;;;;5036010;28;20299;-61
2021/01/28 02:43:27;;;;;;;79.68;37.90;;;;;;;;;;5036330;28;20041;-61
2021/01/28 02:46:27;;;;;;;82.68;40.13;;;;;;;;;;5035075;28;20038;-61
2021/01/28 02:48:57;;;;;;;75.53;37.65;;;;;;;;;;5032002;28;20033;-62
2021/01/28 02:51:31;;;;;;;88.07;42.67;;;;;;;;;;5035906;28;20372;-61
2021/01/28 02:53:59;;;;;;;79.30;37.55;;;;;;;;;;5035788;28;20108;-61
2021/01/28 02:56:26;;;;;;;74.38;36.80;;;;;;;;;;5035747;28;20164;-61
2021/01/28 02:58:54;;;;;;;71.82;34.22;;;;;;;;;;5035633;28;20029;-61
2021/01/28 03:01:20;;;;;;;74.32;36.15;;;;;;;;;;5035740;28;20025;-61
2021/01/28 03:03:50;;;;;;;69.68;34.85;;;;;;;;;;5035845;28;20029;-61
2021/01/28 03:06:17;;;;;;;70.25;35.92;;;;;;;;;;5036998;28;20368;-61
2021/01/28 03:08:52;;;;;;;72.22;35.45;;;;;;;;;;5036789;28;20048;-61
2021/01/28 03:11:41;;;;;;;71.60;34.55;;;;;;;;;;5036307;28;20049;-61
2021/01/28 03:14:14;;;;;;;72.78;36.20;;;;;;;;;;5035248;28;20030;-61
2021/01/28 03:16:43;;;;;;;69.32;36.25;;;;;;;;;;5035201;28;20072;-61
2021/01/28 03:19:25;;;;;;;75.18;36.55;;;;;;;;;;5035605;28;20025;-62
2021/01/28 03:21:58;;;;;;;71.45;35.67;;;;;;;;;;5035037;28;20040;-62
2021/01/28 03:24:33;;;;;;;73.22;35.70;;;;;;;;;;5035199;28;20036;-62
2021/01/28 03:27:02;;;;;;;75.53;37.15;;;;;;;;;;5035299;28;20472;-62
2021/01/28 03:29:27;;;;;;;75.57;36.92;;;;;;;;;;5034969;28;20044;-62
2021/01/28 03:31:53;;;;;;;76.25;37.88;;;;;;;;;;5036227;28;20026;-62
2021/01/28 03:34:19;;;;;;;80.25;38.30;;;;;;;;;;5035068;28;20013;-61
2021/01/28 03:36:46;;;;;;;74.00;37.38;;;;;;;;;;5034808;28;20026;-60
2021/01/28 03:39:18;;;;;;;78.88;37.67;;;;;;;;;;5035005;28;20499;-61
2021/01/28 03:41:43;;;;;;;77.15;38.30;;;;;;;;;;5034792;28;20049;-60
2021/01/28 03:44:09;;;;;;;81.22;40.80;;;;;;;;;;5018515;28;20033;-61
2021/01/28 03:46:35;;;;;;;78.53;37.42;;;;;;;;;;5035727;28;20034;-60
2021/01/28 03:49:00;;;;;;;75.00;37.83;;;;;;;;;;5033484;28;20076;-60
2021/01/28 03:51:33;;;;;;;86.82;43.17;;;;;;;;;;5035732;28;20095;-60
2021/01/28 03:54:17;;;;;;;91.18;42.05;;;;;;;;;;5035915;28;20036;-60
2021/01/28 03:56:47;;;;;;;;;;;;;;;;;;5035045;28;20029;-61
2021/01/28 03:59:13;;;;;;;79.68;37.00;;;;;;;;;;5034496;28;19916;-61
2021/01/28 15:06:06;;;;;;;23.00;17.33;;;;;;;;;;5032216;28;20475;-71
2021/01/28 15:08:31;;;;;;;11.73;8.90;;;;;;;;;;5033273;28;20048;-62
2021/01/28 15:10:57;;;;;;;11.30;9.27;;;;;;;;;;5035784;28;20029;-63
2021/01/28 15:13:23;;;;;;;12.70;9.55;;;;;;;;;;5036556;28;20037;-63
